createdAt,value
2018-01-20T00:00:04.274Z,0
2018-01-20T00:05:02.723Z,0
2018-01-20T00:10:03.271Z,0
2018-01-20T00:15:02.858Z,0
2018-01-20T00:20:03.388Z,0
2018-01-20T00:25:02.934Z,0
2018-01-20T00:30:02.456Z,0
2018-01-20T00:35:03.144Z,0
2018-01-20T00:40:02.691Z,0
2018-01-20T00:45:03.148Z,0
2018-01-20T00:50:02.612Z,0
2018-01-20T00:55:03.105Z,0
2018-01-20T01:00:02.551Z,0
2018-01-20T01:05:02.647Z,0
2018-01-20T01:10:03.400Z,0
2018-01-20T01:15:02.933Z,0
2018-01-20T01:20:02.614Z,0
2018-01-20T01:25:03.088Z,0
2018-01-20T01:30:02.531Z,0
2018-01-20T01:35:02.976Z,0
2018-01-20T01:40:02.683Z,0
2018-01-20T01:45:03.038Z,0
2018-01-20T01:50:02.488Z,0
2018-01-20T01:55:02.951Z,0
2018-01-20T02:00:03.444Z,0
2018-01-20T02:05:02.996Z,0
2018-01-20T02:10:02.646Z,0
2018-01-20T02:15:03.356Z,0
2018-01-20T02:20:02.926Z,0
2018-01-20T02:25:03.330Z,0
2018-01-20T02:30:02.868Z,0
2018-01-20T02:35:02.513Z,0
2018-01-20T02:40:03.048Z,0
2018-01-20T02:45:02.497Z,0
2018-01-20T02:50:03.158Z,0
2018-01-20T02:55:02.687Z,0
2018-01-20T03:00:03.317Z,0
2018-01-20T03:05:02.907Z,0
2018-01-20T03:10:03.360Z,0
2018-01-20T03:15:02.711Z,0
2018-01-20T03:20:03.297Z,0
2018-01-20T03:25:02.738Z,0
2018-01-20T03:30:03.374Z,0
2018-01-20T03:35:02.828Z,0
2018-01-20T03:40:02.492Z,0
2018-01-20T03:45:02.893Z,0
2018-01-20T03:50:03.364Z,0
2018-01-20T03:55:02.761Z,0
2018-01-20T04:00:03.356Z,0
2018-01-20T04:05:02.896Z,0
2018-01-20T04:10:03.454Z,0
2018-01-20T04:15:02.865Z,0
2018-01-20T04:20:03.341Z,0
2018-01-20T04:25:02.792Z,0
2018-01-20T04:30:03.362Z,0
2018-01-20T04:35:02.873Z,0
2018-01-20T04:40:03.411Z,0
2018-01-20T04:45:03.082Z,0
2018-01-20T04:50:02.697Z,0
2018-01-20T04:55:03.317Z,0
2018-01-20T05:00:02.866Z,0
2018-01-20T05:05:03.285Z,0
2018-01-20T05:10:02.783Z,0
2018-01-20T05:15:03.428Z,0
2018-01-20T05:20:03.084Z,0
2018-01-20T05:25:02.536Z,0
2018-01-20T05:30:03.383Z,0
2018-01-20T05:35:02.932Z,0
2018-01-20T05:40:02.547Z,0
2018-01-20T05:45:03.131Z,0
2018-01-20T05:50:02.619Z,0
2018-01-20T05:55:03.038Z,0
2018-01-20T06:00:02.501Z,0
2018-01-20T06:05:03.099Z,0
2018-01-20T06:10:02.834Z,0
2018-01-20T06:15:03.280Z,0
2018-01-20T06:20:02.848Z,0
2018-01-20T06:25:03.433Z,0
2018-01-20T06:30:03.090Z,0
2018-01-20T06:35:02.691Z,0
2018-01-20T06:40:03.167Z,0
2018-01-20T06:45:02.716Z,0
2018-01-20T06:50:03.290Z,1
2018-01-20T06:55:02.854Z,2
2018-01-20T07:00:03.252Z,5
2018-01-20T07:05:02.886Z,11
2018-01-20T07:10:02.543Z,25
2018-01-20T07:15:03.128Z,36
2018-01-20T07:20:02.581Z,56
2018-01-20T07:25:03.174Z,77
2018-01-20T07:30:02.916Z,129
2018-01-20T07:35:03.394Z,230
2018-01-20T07:40:03.046Z,332
2018-01-20T07:45:02.512Z,460
2018-01-20T07:50:03.115Z,576
2018-01-20T07:55:02.730Z,686
2018-01-20T08:00:03.220Z,743
2018-01-20T08:05:02.642Z,929
2018-01-20T08:10:03.135Z,1000
2018-01-20T08:15:02.597Z,1000
2018-01-20T08:20:03.244Z,1000
2018-01-20T08:25:02.906Z,1000
2018-01-20T08:30:02.454Z,1000
2018-01-20T08:35:02.999Z,1000
2018-01-20T08:40:02.541Z,1000
2018-01-20T08:45:02.984Z,1000
2018-01-20T08:50:03.479Z,1000
2018-01-20T08:55:02.945Z,2000
2018-01-20T09:00:02.592Z,2000
2018-01-20T09:05:03.231Z,2000
2018-01-20T09:10:02.704Z,2000
2018-01-20T09:15:03.075Z,2000
2018-01-20T09:20:02.571Z,2000
2018-01-20T09:25:03.065Z,1000
2018-01-20T09:30:02.496Z,2000
2018-01-20T09:35:03.047Z,2000
2018-01-20T09:40:02.577Z,2000
2018-01-20T09:45:03.149Z,2000
2018-01-20T09:50:02.611Z,2000
2018-01-20T09:55:03.655Z,1000
2018-01-20T10:00:03.235Z,1000
2018-01-20T10:05:02.817Z,1000
2018-01-20T10:10:03.354Z,1000
2018-01-20T10:15:02.967Z,1000
2018-01-20T10:20:02.569Z,1000
2018-01-20T10:25:02.921Z,1000
2018-01-20T10:30:02.636Z,1000
2018-01-20T10:35:03.386Z,1000
2018-01-20T10:40:02.912Z,1000
2018-01-20T10:45:02.439Z,1000
2018-01-20T10:50:02.989Z,1000
2018-01-20T10:55:03.422Z,1000
2018-01-20T11:00:02.980Z,1000
2018-01-20T11:05:02.591Z,1000
2018-01-20T11:10:03.255Z,1000
2018-01-20T11:15:02.623Z,2000
2018-01-20T11:20:03.315Z,1000
2018-01-20T11:25:02.843Z,1000
2018-01-20T11:30:02.451Z,1000
2018-01-20T11:35:03.025Z,2000
2018-01-20T11:40:02.578Z,2000
2018-01-20T11:45:03.150Z,2000
2018-01-20T11:50:02.818Z,1000
2018-01-20T11:55:03.270Z,1000
2018-01-20T12:00:02.856Z,1000
2018-01-20T12:05:02.481Z,1000
2018-01-20T12:10:03.140Z,1000
2018-01-20T12:15:02.563Z,1000
2018-01-20T12:20:03.275Z,1000
2018-01-20T12:25:02.761Z,1000
2018-01-20T12:30:03.396Z,1000
2018-01-20T12:35:03.010Z,1000
2018-01-20T12:40:02.490Z,1000
2018-01-20T12:45:03.121Z,1000
2018-01-20T12:50:02.607Z,1000
2018-01-20T12:55:03.209Z,1000
2018-01-20T13:00:02.917Z,1000
2018-01-20T13:05:02.558Z,1000
2018-01-20T13:10:03.231Z,1000
2018-01-20T13:15:02.630Z,1000
2018-01-20T13:20:03.226Z,1000
2018-01-20T13:25:02.693Z,1000
2018-01-20T13:30:03.246Z,1000
2018-01-20T13:35:02.774Z,1000
2018-01-20T13:40:03.430Z,1000
2018-01-20T13:45:02.919Z,1000
2018-01-20T13:50:02.612Z,1000
2018-01-20T13:55:03.089Z,1000
2018-01-20T14:00:02.946Z,907
2018-01-20T14:05:02.747Z,852
2018-01-20T14:10:02.462Z,739
2018-01-20T14:15:03.046Z,776
2018-01-20T14:20:02.809Z,825
2018-01-20T14:25:03.232Z,774
2018-01-20T14:30:02.660Z,715
2018-01-20T14:35:03.268Z,648
2018-01-20T14:40:02.855Z,608
2018-01-20T14:45:02.584Z,491
2018-01-20T14:50:03.054Z,460
2018-01-20T14:55:02.878Z,430
2018-01-20T15:00:02.495Z,422
2018-01-20T15:05:03.233Z,468
2018-01-20T15:10:02.763Z,384
2018-01-20T15:15:03.393Z,529
2018-01-20T15:20:03.240Z,558
2018-01-20T15:25:03.461Z,492
2018-01-20T15:30:02.992Z,449
2018-01-20T15:35:02.830Z,390
2018-01-20T15:40:02.520Z,184
2018-01-20T15:45:03.111Z,80
2018-01-20T15:50:02.758Z,65
2018-01-20T15:55:03.425Z,66
2018-01-20T16:00:02.879Z,63
2018-01-20T16:05:02.525Z,59
2018-01-20T16:10:03.227Z,43
2018-01-20T16:15:02.797Z,38
2018-01-20T16:20:02.584Z,14
2018-01-20T16:25:03.134Z,12
2018-01-20T16:30:02.639Z,4
2018-01-20T16:35:03.234Z,2
2018-01-20T16:40:02.876Z,0
2018-01-20T16:45:03.433Z,0
2018-01-20T16:50:02.934Z,0
2018-01-20T16:55:02.603Z,0
2018-01-20T17:00:03.156Z,0
2018-01-20T17:05:02.765Z,0
2018-01-20T17:10:03.449Z,0
2018-01-20T17:15:02.964Z,0
2018-01-20T17:20:02.463Z,0
2018-01-20T17:25:02.988Z,0
2018-01-20T17:30:02.492Z,0
2018-01-20T17:35:03.022Z,0
2018-01-20T17:40:02.710Z,0
2018-01-20T17:45:03.352Z,0
2018-01-20T17:50:02.915Z,0
2018-01-20T17:55:02.475Z,0
2018-01-20T18:00:02.956Z,0
2018-01-20T18:05:02.596Z,0
2018-01-20T18:10:03.246Z,0
2018-01-20T18:15:02.820Z,0
2018-01-20T18:20:03.291Z,0
2018-01-20T18:25:02.980Z,0
2018-01-20T18:30:02.700Z,0
2018-01-20T18:35:03.286Z,0
2018-01-20T18:40:02.827Z,0
2018-01-20T18:45:02.501Z,0
2018-01-20T18:50:03.150Z,0
2018-01-20T18:55:02.814Z,0
2018-01-20T19:00:03.308Z,0
2018-01-20T19:05:02.905Z,0
2018-01-20T19:10:02.580Z,0
2018-01-20T19:15:03.178Z,0
2018-01-20T19:20:02.766Z,0
2018-01-20T19:25:02.429Z,0
2018-01-20T19:30:03.114Z,0
2018-01-20T19:35:02.764Z,0
2018-01-20T19:40:03.312Z,0
2018-01-20T19:45:02.810Z,0
2018-01-20T19:50:02.465Z,0
2018-01-20T19:55:03.139Z,0
2018-01-20T20:00:02.598Z,0
2018-01-20T20:05:03.098Z,0
2018-01-20T20:10:02.758Z,0
2018-01-20T20:15:03.352Z,0
2018-01-20T20:20:03.104Z,0
2018-01-20T20:25:02.583Z,0
2018-01-20T20:30:03.235Z,0
2018-01-20T20:35:02.929Z,0
2018-01-20T20:40:02.542Z,0
2018-01-20T20:45:03.179Z,0
2018-01-20T20:50:02.790Z,0
2018-01-20T20:55:03.339Z,0
2018-01-20T21:00:02.797Z,0
2018-01-20T21:05:02.519Z,0
2018-01-20T21:10:03.217Z,0
2018-01-20T21:15:02.761Z,0
2018-01-20T21:20:02.605Z,0
2018-01-20T21:25:03.288Z,0
2018-01-20T21:30:02.939Z,0
2018-01-20T21:35:02.694Z,0
2018-01-20T21:40:03.345Z,0
2018-01-20T21:45:03.143Z,0
2018-01-20T21:50:02.645Z,0
2018-01-20T21:55:03.161Z,0
2018-01-20T22:00:03.002Z,0
2018-01-20T22:05:02.586Z,0
2018-01-20T22:10:03.182Z,0
2018-01-20T22:15:02.799Z,0
2018-01-20T22:20:02.445Z,0
2018-01-20T22:25:02.987Z,0
2018-01-20T22:30:03.624Z,0
2018-01-20T22:35:03.247Z,0
2018-01-20T22:40:02.802Z,0
2018-01-20T22:45:02.588Z,0
2018-01-20T22:50:03.339Z,0
2018-01-20T22:55:03.027Z,0
2018-01-20T23:00:02.636Z,0
2018-01-20T23:05:03.417Z,0
2018-01-20T23:10:03.001Z,0
2018-01-20T23:15:02.495Z,0
2018-01-20T23:20:03.169Z,0
2018-01-20T23:25:02.775Z,0
2018-01-20T23:30:03.266Z,0
2018-01-20T23:35:02.889Z,0
2018-01-20T23:40:03.455Z,0
2018-01-20T23:45:02.964Z,0
2018-01-20T23:50:02.530Z,0
2018-01-20T23:55:03.090Z,0
